createdAt,value
2019-05-14T00:00:24.517Z,15.90
2019-05-14T00:01:27.450Z,15.90
2019-05-14T00:02:31.807Z,15.90
2019-05-14T00:03:34.769Z,15.90
2019-05-14T00:04:37.813Z,15.90
2019-05-14T00:05:42.407Z,15.70
2019-05-14T00:06:45.514Z,15.60
2019-05-14T00:07:48.436Z,15.50
2019-05-14T00:08:52.216Z,15.50
2019-05-14T00:09:55.285Z,15.40
2019-05-14T00:10:58.154Z,15.40
2019-05-14T00:12:03.002Z,15.40
2019-05-14T00:13:05.968Z,15.50
2019-05-14T00:14:11.445Z,15.40
2019-05-14T00:15:14.209Z,15.30
2019-05-14T00:16:17.131Z,15.20
2019-05-14T00:17:21.473Z,15.10
2019-05-14T00:18:24.589Z,15.00
2019-05-14T00:19:27.510Z,14.90
2019-05-14T00:20:31.394Z,14.90
2019-05-14T00:21:34.537Z,14.90
2019-05-14T00:22:37.549Z,14.80
2019-05-14T00:23:42.088Z,14.80
2019-05-14T00:24:45.172Z,14.70
2019-05-14T00:25:48.094Z,14.60
2019-05-14T00:26:51.736Z,14.60
2019-05-14T00:27:54.825Z,14.50
2019-05-14T00:28:57.778Z,14.50
2019-05-14T00:30:02.473Z,14.30
2019-05-14T00:31:05.321Z,14.30
2019-05-14T00:32:08.345Z,14.40
2019-05-14T00:33:11.607Z,14.40
2019-05-14T00:34:14.542Z,14.50
2019-05-14T00:35:17.442Z,14.50
2019-05-14T00:36:21.564Z,14.60
2019-05-14T00:37:24.619Z,14.50
2019-05-14T00:38:27.578Z,14.40
2019-05-14T00:39:32.108Z,14.30
2019-05-14T00:40:35.227Z,14.20
2019-05-14T00:41:38.146Z,14.20
2019-05-14T00:42:41.553Z,14.20
2019-05-14T00:43:44.632Z,14.20
2019-05-14T00:44:54.321Z,14.10
2019-05-14T00:45:52.182Z,14.10
2019-05-14T00:46:55.097Z,14.10
2019-05-14T00:47:57.996Z,14.10
2019-05-14T00:49:01.821Z,14.10
2019-05-14T00:50:05.686Z,14.10
2019-05-14T00:51:08.588Z,14.10
2019-05-14T00:52:11.865Z,14.10
2019-05-14T00:53:14.882Z,14.00
2019-05-14T00:54:17.853Z,14.00
2019-05-14T00:55:22.307Z,14.00
2019-05-14T00:56:25.249Z,14.00
2019-05-14T00:57:28.185Z,13.80
2019-05-14T00:58:31.400Z,13.60
2019-05-14T00:59:34.596Z,13.50
2019-05-14T01:00:37.555Z,13.40
2019-05-14T01:01:42.471Z,13.20
2019-05-14T01:02:45.494Z,13.20
2019-05-14T01:03:48.414Z,13.00
2019-05-14T01:04:51.717Z,12.90
2019-05-14T01:05:54.672Z,12.80
2019-05-14T01:06:57.589Z,12.80
2019-05-14T01:08:01.885Z,12.70
2019-05-14T01:09:05.210Z,12.60
2019-05-14T01:10:08.570Z,12.60
2019-05-14T01:11:11.937Z,12.50
2019-05-14T01:12:14.873Z,12.40
2019-05-14T01:13:17.898Z,12.30
2019-05-14T01:14:21.099Z,12.20
2019-05-14T01:15:24.138Z,12.20
2019-05-14T01:16:27.109Z,12.20
2019-05-14T01:17:31.453Z,12.20
2019-05-14T01:18:34.457Z,12.20
2019-05-14T01:19:37.342Z,12.10
2019-05-14T01:20:41.178Z,12.20
2019-05-14T01:21:44.245Z,12.20
2019-05-14T01:22:47.161Z,12.20
2019-05-14T01:23:51.359Z,12.20
2019-05-14T01:24:54.384Z,12.10
2019-05-14T01:25:57.577Z,12.20
2019-05-14T01:27:01.614Z,12.20
2019-05-14T01:28:04.704Z,12.20
2019-05-14T01:29:07.698Z,12.20
2019-05-14T01:30:12.429Z,12.20
2019-05-14T01:31:15.594Z,12.30
2019-05-14T01:32:18.574Z,12.20
2019-05-14T01:33:21.548Z,12.20
2019-05-14T01:34:24.493Z,12.20
2019-05-14T01:35:27.496Z,12.20
2019-05-14T01:36:32.021Z,12.20
2019-05-14T01:37:35.069Z,12.30
2019-05-14T01:38:38.061Z,12.20
2019-05-14T01:39:41.947Z,12.20
2019-05-14T01:40:45.557Z,12.20
2019-05-14T01:41:48.479Z,12.20
2019-05-14T01:42:52.255Z,12.30
2019-05-14T01:43:55.322Z,12.40
2019-05-14T01:44:58.222Z,12.40
2019-05-14T01:46:01.921Z,12.40
2019-05-14T01:47:05.279Z,12.30
2019-05-14T01:48:08.178Z,12.30
2019-05-14T01:49:12.016Z,12.40
2019-05-14T01:50:15.525Z,12.40
2019-05-14T01:51:18.438Z,12.50
2019-05-14T01:52:21.906Z,12.50
2019-05-14T01:53:25.845Z,12.50
2019-05-14T01:54:28.774Z,12.50
2019-05-14T01:55:32.497Z,12.60
2019-05-14T01:56:35.473Z,12.60
2019-05-14T01:57:38.441Z,12.70
2019-05-14T01:58:41.846Z,12.70
2019-05-14T01:59:44.797Z,12.70
2019-05-14T02:00:47.730Z,12.70
2019-05-14T02:01:51.723Z,12.70
2019-05-14T02:02:54.806Z,12.70
2019-05-14T02:03:57.727Z,12.70
2019-05-14T02:05:01.963Z,12.70
2019-05-14T02:06:05.152Z,12.80
2019-05-14T02:07:08.094Z,12.70
2019-05-14T02:08:12.157Z,12.60
2019-05-14T02:09:15.417Z,12.50
2019-05-14T02:10:18.433Z,12.50
2019-05-14T02:11:21.528Z,12.40
2019-05-14T02:12:24.482Z,12.40
2019-05-14T02:13:27.413Z,12.40
2019-05-14T02:14:31.453Z,12.40
2019-05-14T02:15:39.703Z,12.40
2019-05-14T02:16:39.229Z,12.40
2019-05-14T02:17:42.289Z,12.40
2019-05-14T02:18:45.208Z,12.40
2019-05-14T02:19:48.123Z,12.40
2019-05-14T02:20:52.119Z,12.40
2019-05-14T02:21:55.208Z,12.40
2019-05-14T02:22:58.118Z,12.40
2019-05-14T02:24:02.058Z,12.40
2019-05-14T02:25:05.666Z,12.40
2019-05-14T02:26:08.571Z,12.40
2019-05-14T02:27:12.349Z,12.40
2019-05-14T02:28:15.413Z,12.40
2019-05-14T02:29:18.714Z,12.50
2019-05-14T02:30:28.467Z,12.50
2019-05-14T02:31:29.213Z,12.50
2019-05-14T02:32:31.090Z,12.60
2019-05-14T02:33:35.010Z,12.60
2019-05-14T02:34:39.921Z,12.60
2019-05-14T02:35:42.713Z,12.60
2019-05-14T02:36:49.569Z,12.60
2019-05-14T02:37:51.376Z,12.60
2019-05-14T02:38:55.325Z,12.60
2019-05-14T02:39:59.626Z,12.60
2019-05-14T02:41:02.932Z,12.60
2019-05-14T02:42:09.016Z,12.60
2019-05-14T02:43:10.545Z,12.60
2019-05-14T02:44:13.547Z,12.60
2019-05-14T02:45:19.503Z,12.60
2019-05-14T02:46:22.104Z,12.50
2019-05-14T02:47:25.157Z,12.50
2019-05-14T02:48:29.346Z,12.50
2019-05-14T02:49:32.730Z,12.50
2019-05-14T02:50:35.695Z,12.40
2019-05-14T02:51:39.276Z,12.40
2019-05-14T02:52:42.208Z,12.40
2019-05-14T02:53:45.114Z,12.40
2019-05-14T02:54:49.641Z,12.50
2019-05-14T02:55:52.662Z,12.50
2019-05-14T02:56:55.621Z,12.60
2019-05-14T02:57:59.747Z,12.60
2019-05-14T02:59:05.936Z,12.60
2019-05-14T03:00:10.406Z,12.70
2019-05-14T03:01:13.384Z,12.70
2019-05-14T03:02:18.595Z,12.60
2019-05-14T03:03:20.993Z,12.70
2019-05-14T03:04:23.862Z,12.70
2019-05-14T03:05:29.334Z,12.70
2019-05-14T03:06:31.690Z,12.60
2019-05-14T03:07:34.657Z,12.60
2019-05-14T03:08:39.013Z,12.60
2019-05-14T03:09:42.171Z,12.50
2019-05-14T03:10:45.138Z,12.50
2019-05-14T03:11:48.654Z,12.40
2019-05-14T03:12:51.920Z,12.40
2019-05-14T03:13:54.833Z,12.40
2019-05-14T03:14:58.924Z,12.40
2019-05-14T03:16:21.102Z,12.40
2019-05-14T03:17:10.050Z,12.40
2019-05-14T03:18:14.310Z,12.30
2019-05-14T03:19:19.526Z,12.30
2019-05-14T03:20:22.062Z,12.30
2019-05-14T03:21:25.010Z,12.30
2019-05-14T03:22:43.480Z,12.30
2019-05-14T03:23:32.937Z,12.30
2019-05-14T03:24:35.890Z,12.30
2019-05-14T03:25:40.021Z,12.30
2019-05-14T03:26:43.031Z,12.30
2019-05-14T03:27:49.413Z,12.20
2019-05-14T03:28:50.666Z,12.20
2019-05-14T03:29:53.600Z,12.10
2019-05-14T03:31:01.983Z,12.00
2019-05-14T03:32:03.426Z,12.00
2019-05-14T03:33:06.030Z,12.00
2019-05-14T03:34:13.349Z,11.90
2019-05-14T03:35:14.569Z,11.80
2019-05-14T03:36:25.668Z,11.70
2019-05-14T03:37:23.899Z,11.60
2019-05-14T03:38:29.587Z,11.50
2019-05-14T03:39:32.054Z,11.50
2019-05-14T03:40:35.225Z,11.50
2019-05-14T03:41:39.616Z,11.40
2019-05-14T03:42:42.878Z,11.40
2019-05-14T03:43:45.874Z,11.40
2019-05-14T03:44:51.537Z,11.30
2019-05-14T03:45:54.430Z,11.30
2019-05-14T03:47:04.387Z,11.30
2019-05-14T03:48:02.206Z,11.30
2019-05-14T03:49:05.158Z,11.30
2019-05-14T03:50:10.147Z,11.20
2019-05-14T03:51:12.932Z,11.20
2019-05-14T03:52:15.825Z,11.20
2019-05-14T03:53:19.724Z,11.20
2019-05-14T03:54:22.690Z,11.10
2019-05-14T03:55:28.998Z,11.00
2019-05-14T03:56:30.558Z,11.00
2019-05-14T03:57:33.470Z,11.00
2019-05-14T03:58:39.266Z,11.00
2019-05-14T03:59:41.229Z,10.80
2019-05-14T04:00:50.327Z,10.80
2019-05-14T04:01:54.212Z,10.80
2019-05-14T04:03:00.220Z,10.80
2019-05-14T04:04:02.181Z,10.70
2019-05-14T04:05:05.335Z,10.70
2019-05-14T04:06:10.089Z,10.70
2019-05-14T04:07:14.397Z,10.60
2019-05-14T04:08:21.407Z,10.60
2019-05-14T04:09:23.486Z,10.60
2019-05-14T04:10:30.070Z,10.60
2019-05-14T04:11:33.421Z,10.60
2019-05-14T04:12:41.033Z,10.60
2019-05-14T04:13:49.707Z,10.60
2019-05-14T04:14:55.465Z,10.60
2019-05-14T04:16:03.430Z,10.60
2019-05-14T04:17:15.218Z,10.70
2019-05-14T04:18:18.507Z,10.70
2019-05-14T04:19:24.095Z,10.70
2019-05-14T04:20:30.597Z,10.70
2019-05-14T04:21:35.617Z,10.70
2019-05-14T04:22:40.133Z,10.70
2019-05-14T04:23:51.070Z,10.70
2019-05-14T04:24:54.500Z,10.60
2019-05-14T04:26:00.534Z,10.70
2019-05-14T04:27:11.526Z,10.60
2019-05-14T04:28:13.245Z,10.70
2019-05-14T04:29:19.815Z,10.70
2019-05-14T04:30:24.312Z,10.70
2019-05-14T04:31:30.962Z,10.60
2019-05-14T04:32:34.292Z,10.60
2019-05-14T04:33:40.377Z,10.60
2019-05-14T04:34:43.518Z,10.60
2019-05-14T04:35:49.037Z,10.60
2019-05-14T04:36:51.478Z,10.60
2019-05-14T04:37:54.441Z,10.60
2019-05-14T04:39:00.609Z,10.70
2019-05-14T04:40:02.513Z,10.80
2019-05-14T04:41:05.442Z,10.90
2019-05-14T04:42:09.579Z,10.90
2019-05-14T04:43:13.982Z,10.90
2019-05-14T04:44:19.186Z,10.90
2019-05-14T04:45:21.772Z,10.90
2019-05-14T04:46:30.216Z,10.90
2019-05-14T04:47:37.239Z,10.90
2019-05-14T04:48:42.946Z,10.90
2019-05-14T04:49:47.450Z,10.90
2019-05-14T04:50:51.301Z,10.90
2019-05-14T04:51:59.534Z,10.90
2019-05-14T04:53:01.654Z,10.90
2019-05-14T04:54:04.572Z,10.90
2019-05-14T04:55:09.818Z,11.00
2019-05-14T04:56:12.713Z,11.00
2019-05-14T04:57:15.658Z,11.10
2019-05-14T04:58:21.580Z,11.10
2019-05-14T04:59:23.363Z,11.10
2019-05-14T05:00:30.191Z,11.10
2019-05-14T05:01:30.999Z,11.20
2019-05-14T05:02:35.010Z,11.20
2019-05-14T05:03:39.942Z,11.30
2019-05-14T05:04:42.730Z,11.30
2019-05-14T05:05:45.663Z,11.40
2019-05-14T05:06:49.854Z,11.40
2019-05-14T05:07:53.010Z,11.40
2019-05-14T05:08:56.029Z,11.40
2019-05-14T05:09:59.452Z,11.40
2019-05-14T05:11:02.504Z,11.40
2019-05-14T05:12:05.418Z,11.40
2019-05-14T05:13:09.214Z,11.40
2019-05-14T05:14:12.214Z,11.50
2019-05-14T05:15:15.378Z,11.50
2019-05-14T05:16:19.242Z,11.60
2019-05-14T05:17:38.893Z,11.60
2019-05-14T05:18:29.495Z,11.60
2019-05-14T05:19:32.769Z,11.60
2019-05-14T05:20:35.674Z,11.60
2019-05-14T05:21:38.887Z,11.60
2019-05-14T05:22:41.832Z,11.70
2019-05-14T05:23:44.801Z,11.60
2019-05-14T05:24:48.467Z,11.60
2019-05-14T05:25:51.536Z,11.60
2019-05-14T05:26:54.456Z,11.70
2019-05-14T05:27:59.596Z,11.70
2019-05-14T05:29:06.551Z,11.70
2019-05-14T05:30:08.523Z,11.60
2019-05-14T05:31:11.933Z,11.70
2019-05-14T05:32:14.905Z,11.70
2019-05-14T05:33:18.792Z,11.60
2019-05-14T05:34:21.805Z,11.70
2019-05-14T05:35:24.703Z,11.70
2019-05-14T05:36:29.000Z,11.80
2019-05-14T05:37:32.146Z,11.80
2019-05-14T05:38:35.069Z,11.90
2019-05-14T05:39:38.692Z,11.80
2019-05-14T05:40:41.795Z,11.80
2019-05-14T05:41:44.714Z,11.80
2019-05-14T05:42:48.993Z,11.80
2019-05-14T05:43:52.021Z,11.80
2019-05-14T05:44:58.771Z,11.80
2019-05-14T05:46:01.831Z,11.80
2019-05-14T05:47:04.741Z,11.70
2019-05-14T05:48:08.264Z,11.70
2019-05-14T05:49:11.272Z,11.70
2019-05-14T05:50:19.313Z,11.70
2019-05-14T05:51:22.049Z,11.80
2019-05-14T05:52:24.955Z,11.80
2019-05-14T05:53:28.732Z,11.70
2019-05-14T05:54:31.973Z,11.70
2019-05-14T05:55:35.095Z,11.70
2019-05-14T05:56:38.832Z,11.70
2019-05-14T05:57:41.797Z,11.70
2019-05-14T05:58:48.587Z,11.70
2019-05-14T05:59:50.726Z,11.80
2019-05-14T06:00:53.782Z,11.80
2019-05-14T06:01:58.678Z,11.80
2019-05-14T06:03:01.799Z,11.90
2019-05-14T06:04:04.814Z,11.80
2019-05-14T06:05:08.207Z,11.80
2019-05-14T06:06:13.366Z,11.80
2019-05-14T06:07:18.177Z,11.80
2019-05-14T06:08:20.838Z,11.80
2019-05-14T06:09:23.889Z,11.80
2019-05-14T06:10:29.098Z,11.90
2019-05-14T06:11:31.569Z,11.80
2019-05-14T06:12:34.480Z,11.80
2019-05-14T06:13:39.000Z,11.70
2019-05-14T06:14:42.234Z,11.70
2019-05-14T06:15:48.729Z,11.80
2019-05-14T06:16:49.989Z,11.80
2019-05-14T06:17:52.915Z,11.80
2019-05-14T06:18:55.849Z,11.80
2019-05-14T06:19:59.242Z,11.80
2019-05-14T06:21:02.258Z,11.80
2019-05-14T06:22:05.295Z,11.80
2019-05-14T06:23:08.512Z,11.80
2019-05-14T06:24:11.529Z,11.80
2019-05-14T06:25:14.496Z,11.80
2019-05-14T06:26:19.198Z,11.80
2019-05-14T06:27:22.385Z,11.90
2019-05-14T06:28:30.108Z,11.90
2019-05-14T06:29:30.015Z,11.80
2019-05-14T06:30:35.146Z,11.80
2019-05-14T06:31:38.873Z,11.80
2019-05-14T06:32:41.931Z,11.80
2019-05-14T06:33:44.933Z,11.80
2019-05-14T06:34:48.862Z,11.80
2019-05-14T06:35:52.965Z,11.80
2019-05-14T06:36:59.125Z,11.80
2019-05-14T06:38:01.784Z,11.80
2019-05-14T06:39:08.965Z,11.80
2019-05-14T06:40:11.826Z,11.80
2019-05-14T06:41:14.836Z,11.90
2019-05-14T06:42:19.404Z,11.90
2019-05-14T06:43:22.445Z,11.80
2019-05-14T06:44:25.865Z,11.80
2019-05-14T06:45:29.315Z,11.80
2019-05-14T06:46:32.414Z,11.90
2019-05-14T06:47:35.505Z,11.90
2019-05-14T06:48:39.631Z,11.90
2019-05-14T06:49:42.870Z,11.80
2019-05-14T06:50:45.797Z,11.90
2019-05-14T06:51:49.136Z,11.90
2019-05-14T06:52:52.292Z,11.90
2019-05-14T06:53:55.234Z,11.90
2019-05-14T06:54:58.319Z,11.80
2019-05-14T06:56:01.338Z,11.90
2019-05-14T06:57:04.338Z,11.90
2019-05-14T06:58:09.170Z,11.90
2019-05-14T06:59:12.245Z,11.90
2019-05-14T07:00:15.703Z,11.90
2019-05-14T07:01:18.816Z,11.90
2019-05-14T07:02:21.782Z,11.80
2019-05-14T07:03:24.812Z,11.80
2019-05-14T07:04:28.942Z,11.80
2019-05-14T07:05:32.001Z,11.80
2019-05-14T07:06:36.127Z,11.80
2019-05-14T07:07:40.454Z,11.80
2019-05-14T07:08:43.622Z,11.80
2019-05-14T07:09:48.769Z,11.80
2019-05-14T07:10:51.536Z,12.00
2019-05-14T07:11:54.484Z,12.00
2019-05-14T07:12:59.203Z,12.00
2019-05-14T07:14:02.194Z,12.10
2019-05-14T07:15:05.641Z,12.10
2019-05-14T07:16:09.561Z,12.10
2019-05-14T07:17:12.536Z,12.20
2019-05-14T07:18:15.491Z,12.20
2019-05-14T07:19:19.148Z,12.10
2019-05-14T07:20:22.341Z,12.10
2019-05-14T07:21:25.373Z,12.10
2019-05-14T07:22:28.326Z,12.10
2019-05-14T07:23:31.388Z,12.10
2019-05-14T07:24:37.020Z,12.10
2019-05-14T07:25:39.510Z,12.10
2019-05-14T07:26:42.368Z,12.10
2019-05-14T07:27:45.284Z,12.20
2019-05-14T07:28:48.977Z,12.10
2019-05-14T07:29:52.090Z,12.10
2019-05-14T07:30:55.062Z,12.10
2019-05-14T07:31:58.338Z,12.20
2019-05-14T07:33:01.358Z,12.30
2019-05-14T07:34:04.373Z,12.30
2019-05-14T07:35:09.143Z,12.30
2019-05-14T07:36:12.308Z,12.40
2019-05-14T07:37:15.279Z,12.40
2019-05-14T07:38:19.561Z,12.40
2019-05-14T07:39:22.670Z,12.40
2019-05-14T07:40:25.745Z,12.40
2019-05-14T07:41:28.685Z,12.50
2019-05-14T07:42:31.498Z,12.50
2019-05-14T07:43:34.473Z,12.50
2019-05-14T07:44:39.077Z,12.50
2019-05-14T07:45:42.273Z,12.60
2019-05-14T07:46:45.314Z,12.70
2019-05-14T07:47:49.300Z,12.80
2019-05-14T07:49:04.375Z,12.80
2019-05-14T07:49:58.228Z,12.70
2019-05-14T07:51:01.374Z,12.70
2019-05-14T07:52:04.308Z,12.70
2019-05-14T07:53:09.019Z,12.80
2019-05-14T07:54:12.061Z,12.90
2019-05-14T07:55:15.093Z,13.00
2019-05-14T07:56:18.738Z,13.00
2019-05-14T07:57:21.852Z,13.00
2019-05-14T07:58:28.056Z,13.00
2019-05-14T07:59:30.945Z,13.00
2019-05-14T08:00:33.966Z,12.90
2019-05-14T08:01:38.801Z,12.90
2019-05-14T08:02:41.777Z,12.90
2019-05-14T08:03:44.694Z,12.90
2019-05-14T08:04:48.716Z,12.80
2019-05-14T08:05:51.719Z,12.90
2019-05-14T08:06:54.657Z,12.90
2019-05-14T08:07:58.638Z,12.90
2019-05-14T08:09:01.577Z,12.90
2019-05-14T08:10:06.027Z,12.90
2019-05-14T08:11:08.978Z,12.90
2019-05-14T08:12:12.948Z,12.90
2019-05-14T08:13:18.877Z,12.90
2019-05-14T08:14:21.332Z,12.80
2019-05-14T08:15:25.349Z,12.80
2019-05-14T08:16:28.973Z,12.70
2019-05-14T08:17:32.094Z,12.80
2019-05-14T08:18:35.102Z,12.70
2019-05-14T08:19:38.516Z,12.70
2019-05-14T08:20:41.666Z,12.70
2019-05-14T08:21:45.217Z,12.60
2019-05-14T08:22:48.984Z,12.60
2019-05-14T08:23:52.132Z,12.60
2019-05-14T08:24:55.067Z,12.60
2019-05-14T08:25:58.707Z,12.50
2019-05-14T08:27:01.882Z,12.50
2019-05-14T08:28:04.837Z,12.50
2019-05-14T08:29:08.685Z,12.40
2019-05-14T08:30:12.657Z,12.40
2019-05-14T08:31:18.632Z,12.40
2019-05-14T08:32:21.803Z,12.40
2019-05-14T08:33:24.793Z,12.30
2019-05-14T08:34:30.379Z,12.30
2019-05-14T08:35:34.223Z,12.30
2019-05-14T08:36:37.987Z,12.40
2019-05-14T08:37:41.144Z,12.40
2019-05-14T08:38:45.385Z,12.40
2019-05-14T08:39:48.898Z,12.40
2019-05-14T08:40:51.794Z,12.40
2019-05-14T08:41:59.727Z,12.30
2019-05-14T08:42:59.726Z,12.30
2019-05-14T08:44:02.755Z,12.30
2019-05-14T08:45:10.527Z,12.30
2019-05-14T08:46:12.105Z,12.30
2019-05-14T08:47:15.073Z,12.30
2019-05-14T08:48:19.025Z,12.30
2019-05-14T08:49:37.211Z,12.30
2019-05-14T08:50:28.137Z,12.30
2019-05-14T08:51:31.135Z,12.30
2019-05-14T08:52:34.050Z,12.40
2019-05-14T08:53:38.489Z,12.40
2019-05-14T08:54:41.662Z,12.40
2019-05-14T08:55:48.707Z,12.40
2019-05-14T08:56:51.967Z,12.40
2019-05-14T08:57:54.953Z,12.40
2019-05-14T08:59:00.589Z,12.40
2019-05-14T09:00:03.986Z,12.40
2019-05-14T09:01:08.263Z,12.50
2019-05-14T09:02:11.416Z,12.50
2019-05-14T09:03:14.392Z,12.60
2019-05-14T09:04:22.533Z,12.50
2019-05-14T09:05:22.069Z,12.50
2019-05-14T09:06:25.156Z,12.50
2019-05-14T09:07:28.945Z,12.50
2019-05-14T09:08:32.109Z,12.50
2019-05-14T09:09:38.090Z,12.50
2019-05-14T09:10:40.793Z,12.40
2019-05-14T09:11:45.815Z,12.40
2019-05-14T09:12:49.264Z,12.40
2019-05-14T09:13:52.235Z,12.40
2019-05-14T09:14:55.126Z,12.40
2019-05-14T09:15:58.402Z,12.40
2019-05-14T09:17:01.610Z,12.40
2019-05-14T09:18:05.526Z,12.40
2019-05-14T09:19:08.807Z,12.40
2019-05-14T09:20:13.012Z,12.40
2019-05-14T09:21:16.082Z,12.40
2019-05-14T09:22:19.061Z,12.50
2019-05-14T09:23:21.983Z,12.50
2019-05-14T09:24:25.627Z,12.50
2019-05-14T09:25:29.188Z,12.50
2019-05-14T09:26:32.193Z,12.40
2019-05-14T09:27:35.021Z,12.40
2019-05-14T09:28:39.266Z,12.40
2019-05-14T09:29:42.550Z,12.30
2019-05-14T09:30:45.479Z,12.30
2019-05-14T09:31:49.424Z,12.20
2019-05-14T09:32:52.674Z,12.10
2019-05-14T09:33:55.611Z,12.10
2019-05-14T09:34:59.044Z,12.00
2019-05-14T09:36:14.775Z,12.00
2019-05-14T09:37:08.657Z,12.00
2019-05-14T09:38:11.651Z,12.00
2019-05-14T09:39:14.645Z,12.00
2019-05-14T09:40:19.789Z,11.90
2019-05-14T09:41:22.359Z,12.00
2019-05-14T09:42:25.311Z,12.00
2019-05-14T09:43:28.717Z,12.00
2019-05-14T09:44:31.621Z,12.00
2019-05-14T09:45:34.561Z,11.90
2019-05-14T09:46:38.482Z,12.00
2019-05-14T09:47:41.554Z,12.00
2019-05-14T09:48:44.497Z,12.00
2019-05-14T09:49:49.159Z,11.90
2019-05-14T09:50:52.231Z,11.90
2019-05-14T09:51:55.444Z,11.80
2019-05-14T09:52:59.271Z,11.80
2019-05-14T09:54:02.445Z,11.90
2019-05-14T09:55:05.809Z,11.90
2019-05-14T09:56:09.243Z,11.90
2019-05-14T09:57:12.239Z,11.90
2019-05-14T09:58:15.167Z,11.90
2019-05-14T09:59:18.573Z,11.90
2019-05-14T10:00:21.639Z,11.90
2019-05-14T10:01:24.633Z,11.90
2019-05-14T10:02:27.550Z,11.90
2019-05-14T10:03:30.509Z,11.90
2019-05-14T10:04:33.418Z,11.90
2019-05-14T10:05:36.406Z,12.00
2019-05-14T10:06:39.445Z,12.00
2019-05-14T10:07:42.361Z,12.10
2019-05-14T10:08:48.387Z,12.10
2019-05-14T10:09:51.321Z,12.00
2019-05-14T10:10:54.238Z,12.00
2019-05-14T10:11:58.004Z,12.00
2019-05-14T10:13:02.059Z,12.00
2019-05-14T10:14:05.344Z,12.00
2019-05-14T10:15:09.008Z,12.00
2019-05-14T10:16:11.883Z,12.00
2019-05-14T10:17:19.410Z,12.00
2019-05-14T10:18:22.353Z,12.00
2019-05-14T10:19:25.588Z,12.00
2019-05-14T10:20:40.231Z,12.00
2019-05-14T10:21:33.373Z,12.00
2019-05-14T10:22:36.380Z,12.00
2019-05-14T10:23:39.320Z,12.00
2019-05-14T10:24:42.305Z,12.00
2019-05-14T10:25:45.289Z,12.00
2019-05-14T10:26:48.999Z,12.00
2019-05-14T10:27:52.129Z,12.10
2019-05-14T10:28:55.158Z,12.10
2019-05-14T10:29:58.892Z,12.10
2019-05-14T10:31:03.695Z,12.00
2019-05-14T10:32:08.748Z,12.10
2019-05-14T10:33:14.905Z,12.10
2019-05-14T10:34:19.001Z,12.20
2019-05-14T10:35:21.218Z,12.20
2019-05-14T10:36:24.230Z,12.20
2019-05-14T10:37:28.762Z,12.20
2019-05-14T10:38:31.888Z,12.10
2019-05-14T10:39:34.843Z,12.00
2019-05-14T10:40:38.552Z,12.00
2019-05-14T10:41:41.617Z,12.00
2019-05-14T10:42:44.565Z,11.90
2019-05-14T10:43:49.586Z,11.90
2019-05-14T10:44:52.307Z,11.90
2019-05-14T10:45:55.233Z,11.90
2019-05-14T10:46:58.386Z,11.90
2019-05-14T10:48:01.289Z,11.90
2019-05-14T10:49:16.653Z,11.90
2019-05-14T10:50:13.829Z,11.90
2019-05-14T10:51:14.038Z,11.90
2019-05-14T10:52:19.693Z,11.90
2019-05-14T10:53:21.869Z,11.90
2019-05-14T10:54:26.027Z,11.80
2019-05-14T10:55:29.612Z,11.80
2019-05-14T10:56:32.555Z,11.80
2019-05-14T10:57:35.529Z,11.80
2019-05-14T10:58:38.471Z,11.80
2019-05-14T10:59:41.434Z,11.70
2019-05-14T11:00:44.700Z,11.80
2019-05-14T11:01:47.661Z,11.80
2019-05-14T11:02:50.669Z,11.80
2019-05-14T11:03:53.633Z,11.80
2019-05-14T11:04:58.664Z,11.80
2019-05-14T11:06:02.339Z,11.90
2019-05-14T11:07:05.289Z,11.90
2019-05-14T11:08:11.948Z,12.00
2019-05-14T11:09:13.980Z,12.10
2019-05-14T11:10:19.354Z,12.10
2019-05-14T11:11:21.815Z,12.20
2019-05-14T11:12:24.761Z,12.30
2019-05-14T11:13:29.215Z,12.40
2019-05-14T11:14:32.869Z,12.40
2019-05-14T11:15:35.858Z,12.50
2019-05-14T11:16:41.903Z,12.50
2019-05-14T11:17:43.565Z,12.40
2019-05-14T11:18:49.758Z,12.40
2019-05-14T11:19:51.686Z,12.50
2019-05-14T11:20:54.629Z,12.40
2019-05-14T11:21:57.879Z,12.50
2019-05-14T11:23:00.956Z,12.50
2019-05-14T11:24:03.989Z,12.50
2019-05-14T11:25:09.280Z,12.40
2019-05-14T11:26:12.589Z,12.40
2019-05-14T11:27:15.539Z,12.40
2019-05-14T11:28:19.157Z,12.30
2019-05-14T11:29:22.110Z,12.20
2019-05-14T11:30:25.207Z,12.20
2019-05-14T11:31:29.881Z,12.20
2019-05-14T11:32:33.119Z,12.20
2019-05-14T11:33:38.658Z,12.20
2019-05-14T11:34:40.754Z,12.20
2019-05-14T11:35:43.720Z,12.30
2019-05-14T11:36:49.435Z,12.30
2019-05-14T11:37:51.444Z,12.30
2019-05-14T11:38:54.346Z,12.30
2019-05-14T11:39:58.104Z,12.30
2019-05-14T11:41:01.020Z,12.20
2019-05-14T11:42:04.045Z,12.20
2019-05-14T11:43:08.378Z,12.10
2019-05-14T11:44:11.426Z,12.10
2019-05-14T11:45:14.783Z,12.10
2019-05-14T11:46:29.748Z,12.00
2019-05-14T11:47:25.205Z,12.00
2019-05-14T11:48:28.158Z,12.10
2019-05-14T11:49:31.130Z,12.10
2019-05-14T11:50:34.192Z,12.20
2019-05-14T11:51:59.487Z,12.20
2019-05-14T11:52:41.865Z,12.20
2019-05-14T11:53:44.981Z,12.30
2019-05-14T11:54:49.352Z,12.30
2019-05-14T11:55:52.854Z,12.40
2019-05-14T11:56:55.741Z,12.40
2019-05-14T11:57:58.731Z,12.40
2019-05-14T11:59:01.801Z,12.40
2019-05-14T12:00:08.386Z,12.40
2019-05-14T12:01:10.626Z,12.50
2019-05-14T12:02:13.606Z,12.50
2019-05-14T12:03:19.288Z,12.50
2019-05-14T12:04:21.304Z,12.50
2019-05-14T12:05:24.218Z,12.40
2019-05-14T12:06:27.198Z,12.50
2019-05-14T12:07:30.218Z,12.50
2019-05-14T12:08:33.156Z,12.60
2019-05-14T12:09:36.074Z,12.50
2019-05-14T12:10:39.093Z,12.50
2019-05-14T12:11:42.184Z,12.50
2019-05-14T12:12:45.682Z,12.50
2019-05-14T12:13:49.082Z,12.50
2019-05-14T12:14:52.030Z,12.50
2019-05-14T12:15:55.202Z,12.50
2019-05-14T12:16:59.931Z,12.50
2019-05-14T12:18:02.900Z,12.50
2019-05-14T12:19:08.537Z,12.60
2019-05-14T12:20:11.781Z,12.60
2019-05-14T12:21:14.719Z,12.60
2019-05-14T12:22:18.965Z,12.60
2019-05-14T12:23:22.064Z,12.70
2019-05-14T12:24:25.148Z,12.70
2019-05-14T12:25:29.442Z,12.70
2019-05-14T12:26:32.485Z,12.60
2019-05-14T12:27:35.429Z,12.60
2019-05-14T12:28:38.744Z,12.60
2019-05-14T12:29:41.905Z,12.60
2019-05-14T12:30:44.897Z,12.50
2019-05-14T12:31:50.686Z,12.50
2019-05-14T12:32:52.828Z,12.40
2019-05-14T12:33:58.232Z,12.40
2019-05-14T12:35:00.517Z,12.30
2019-05-14T12:36:03.547Z,12.30
2019-05-14T12:37:08.838Z,12.30
2019-05-14T12:38:11.154Z,12.30
2019-05-14T12:39:14.288Z,12.40
2019-05-14T12:40:19.383Z,12.40
2019-05-14T12:41:21.979Z,12.40
2019-05-14T12:42:24.946Z,12.40
2019-05-14T12:43:28.500Z,12.50
2019-05-14T12:44:31.481Z,12.50
2019-05-14T12:45:34.444Z,12.50
2019-05-14T12:46:37.344Z,12.60
2019-05-14T12:47:40.428Z,12.60
2019-05-14T12:48:43.360Z,12.70
2019-05-14T12:49:48.280Z,12.70
2019-05-14T12:50:51.057Z,12.70
2019-05-14T12:51:53.997Z,12.70
2019-05-14T12:52:58.812Z,12.70
2019-05-14T12:54:01.718Z,12.80
2019-05-14T12:55:04.933Z,12.80
2019-05-14T12:56:08.677Z,12.80
2019-05-14T12:57:11.777Z,12.80
2019-05-14T12:58:14.845Z,12.70
2019-05-14T12:59:17.753Z,12.70
2019-05-14T13:00:20.980Z,12.70
2019-05-14T13:01:23.960Z,12.70
2019-05-14T13:02:29.512Z,12.70
2019-05-14T13:03:31.782Z,12.70
2019-05-14T13:04:34.780Z,12.70
2019-05-14T13:05:37.743Z,12.80
2019-05-14T13:06:40.734Z,12.80
2019-05-14T13:07:43.698Z,12.80
2019-05-14T13:08:48.965Z,12.80
2019-05-14T13:09:51.385Z,12.80
2019-05-14T13:10:54.329Z,12.70
2019-05-14T13:11:59.981Z,12.60
2019-05-14T13:13:03.293Z,12.60
2019-05-14T13:14:06.385Z,12.50
2019-05-14T13:15:10.595Z,12.60
2019-05-14T13:16:13.546Z,12.60
2019-05-14T13:17:18.555Z,12.60
2019-05-14T13:18:21.244Z,12.60
2019-05-14T13:19:24.298Z,12.60
2019-05-14T13:20:29.051Z,12.50
2019-05-14T13:21:32.072Z,12.50
2019-05-14T13:22:42.409Z,12.50
2019-05-14T13:23:39.931Z,12.50
2019-05-14T13:24:42.994Z,12.40
2019-05-14T13:25:45.973Z,12.40
2019-05-14T13:26:49.680Z,12.40
2019-05-14T13:27:52.758Z,12.30
2019-05-14T13:28:55.694Z,12.10
2019-05-14T13:29:59.224Z,12.10
2019-05-14T13:31:02.222Z,12.10
2019-05-14T13:32:05.152Z,12.10
2019-05-14T13:33:08.858Z,12.10
2019-05-14T13:34:11.938Z,12.10
2019-05-14T13:35:15.093Z,12.10
2019-05-14T13:36:20.257Z,12.10
2019-05-14T13:37:22.775Z,12.10
2019-05-14T13:38:26.090Z,12.10
2019-05-14T13:39:29.070Z,12.10